createdAt,value
2023-03-28T00:00:50.852Z,4.00
2023-03-28T00:03:22.324Z,4.10
2023-03-28T00:05:50.225Z,4.10
2023-03-28T00:08:18.181Z,4.00
2023-03-28T00:10:45.273Z,4.10
2023-03-28T00:13:14.140Z,4.10
2023-03-28T00:15:42.599Z,4.00
2023-03-28T00:18:11.576Z,4.00
2023-03-28T00:20:43.673Z,4.00
2023-03-28T00:23:11.986Z,4.00
2023-03-28T00:25:43.336Z,4.00
2023-03-28T00:28:10.053Z,3.90
2023-03-28T00:30:36.949Z,3.90
2023-03-28T00:33:05.675Z,3.90
2023-03-28T00:35:33.002Z,3.80
2023-03-28T00:37:59.591Z,3.80
2023-03-28T00:40:26.954Z,3.80
2023-03-28T00:42:54.005Z,3.80
2023-03-28T00:45:23.888Z,3.70
2023-03-28T00:47:54.666Z,3.60
2023-03-28T00:50:30.781Z,3.60
2023-03-28T00:53:09.698Z,3.60
2023-03-28T00:55:40.755Z,3.60
2023-03-28T00:58:11.418Z,3.50
2023-03-28T01:00:41.343Z,3.60
2023-03-28T01:03:08.916Z,3.60
2023-03-28T01:09:24.485Z,3.50
2023-03-28T01:11:53.614Z,3.50
2023-03-28T01:14:23.199Z,3.50
2023-03-28T01:16:51.112Z,3.50
2023-03-28T01:19:33.834Z,3.50
2023-03-28T01:22:29.203Z,3.50
2023-03-28T01:25:10.757Z,3.50
2023-03-28T01:27:46.787Z,3.30
2023-03-28T01:30:22.553Z,3.20
2023-03-28T01:33:18.897Z,3.10
2023-03-28T01:35:48.178Z,3.20
2023-03-28T01:38:24.768Z,3.10
2023-03-28T01:41:02.380Z,3.10
2023-03-28T01:44:00.265Z,3.10
2023-03-28T01:46:39.164Z,3.10
2023-03-28T01:49:33.394Z,3.00
2023-03-28T01:52:17.650Z,3.10
2023-03-28T01:54:56.533Z,3.20
2023-03-28T01:57:28.753Z,3.10
2023-03-28T02:00:15.492Z,3.10
2023-03-28T02:02:49.401Z,3.10
2023-03-28T02:05:19.477Z,3.10
2023-03-28T02:07:48.790Z,3.10
2023-03-28T02:10:19.397Z,3.00
2023-03-28T02:12:52.130Z,2.90
2023-03-28T02:15:22.114Z,2.90
2023-03-28T02:17:54.109Z,2.90
2023-03-28T02:20:24.669Z,3.00
2023-03-28T02:23:00.746Z,3.00
2023-03-28T02:25:27.513Z,3.00
2023-03-28T02:27:58.909Z,3.10
2023-03-28T02:30:27.190Z,3.10
2023-03-28T02:33:02.672Z,3.10
2023-03-28T02:35:56.688Z,3.10
2023-03-28T02:38:54.427Z,3.10
2023-03-28T02:41:55.750Z,3.00
2023-03-28T02:44:47.187Z,2.90
2023-03-28T02:47:28.628Z,2.90
2023-03-28T02:50:30.245Z,2.90
2023-03-28T02:53:27.093Z,3.00
2023-03-28T02:55:56.873Z,2.80
2023-03-28T02:58:42.268Z,2.80
2023-03-28T03:01:10.543Z,2.80
2023-03-28T03:03:37.666Z,2.70
2023-03-28T03:06:05.767Z,2.80
2023-03-28T03:08:32.729Z,2.80
2023-03-28T03:10:59.588Z,2.80
2023-03-28T03:13:26.164Z,2.90
2023-03-28T03:15:54.407Z,2.70
2023-03-28T03:18:21.444Z,2.70
2023-03-28T03:20:50.225Z,2.60
2023-03-28T03:23:16.949Z,2.60
2023-03-28T03:25:43.568Z,2.70
2023-03-28T03:28:10.743Z,2.60
2023-03-28T03:30:37.319Z,2.60
2023-03-28T03:33:05.428Z,2.60
2023-03-28T03:35:35.451Z,2.50
2023-03-28T03:38:02.967Z,2.40
2023-03-28T03:40:29.672Z,2.40
2023-03-28T03:42:56.298Z,2.50
2023-03-28T03:45:22.835Z,2.50
2023-03-28T03:47:49.383Z,2.40
2023-03-28T03:50:16.033Z,2.20
2023-03-28T03:52:42.661Z,2.00
2023-03-28T03:55:09.572Z,1.90
2023-03-28T03:57:36.634Z,1.90
2023-03-28T04:00:11.897Z,1.80
2023-03-28T04:02:39.539Z,1.80
2023-03-28T04:05:08.443Z,1.70
2023-03-28T04:07:35.668Z,1.80
2023-03-28T04:10:02.959Z,1.50
2023-03-28T04:12:29.618Z,1.60
2023-03-28T04:14:56.467Z,1.60
2023-03-28T04:17:23.385Z,1.60
2023-03-28T04:19:50.161Z,1.70
2023-03-28T04:22:18.279Z,1.80
2023-03-28T04:24:45.724Z,1.80
2023-03-28T04:27:12.416Z,1.80
2023-03-28T04:29:39.247Z,1.80
2023-03-28T04:32:06.186Z,1.90
2023-03-28T04:34:33.803Z,2.00
2023-03-28T04:37:02.329Z,1.90
2023-03-28T04:39:35.541Z,2.00
2023-03-28T04:42:05.183Z,2.00
2023-03-28T04:44:32.204Z,2.20
2023-03-28T04:46:59.557Z,2.10
2023-03-28T04:49:26.692Z,2.10
2023-03-28T04:51:53.424Z,2.20
2023-03-28T04:54:20.384Z,2.20
2023-03-28T04:56:50.440Z,2.20
2023-03-28T04:59:17.790Z,2.20
2023-03-28T05:01:50.833Z,2.20
2023-03-28T05:04:18.960Z,2.10
2023-03-28T05:06:46.778Z,2.10
2023-03-28T05:09:14.208Z,2.10
2023-03-28T05:11:41.206Z,2.00
2023-03-28T05:14:08.392Z,1.90
2023-03-28T05:16:35.349Z,2.00
2023-03-28T05:19:02.319Z,2.00
2023-03-28T05:21:29.079Z,2.00
2023-03-28T05:23:56.176Z,2.10
2023-03-28T05:26:22.788Z,2.10
2023-03-28T05:28:49.585Z,2.00
2023-03-28T05:31:17.190Z,1.90
2023-03-28T05:33:43.897Z,1.80
2023-03-28T05:36:11.328Z,1.90
2023-03-28T05:38:38.241Z,1.80
2023-03-28T05:41:05.184Z,1.90
2023-03-28T05:43:31.922Z,2.00
2023-03-28T05:45:58.596Z,1.80
2023-03-28T05:48:25.395Z,1.90
2023-03-28T05:50:52.001Z,1.90
2023-03-28T05:53:18.679Z,1.90
2023-03-28T05:55:45.786Z,2.00
2023-03-28T05:58:13.483Z,2.10
2023-03-28T06:00:41.853Z,2.10
2023-03-28T06:03:09.409Z,2.20
2023-03-28T06:05:43.399Z,2.20
2023-03-28T06:08:10.006Z,2.40
2023-03-28T06:10:36.754Z,2.40
2023-03-28T06:13:03.332Z,2.50
2023-03-28T06:15:30.119Z,2.50
2023-03-28T06:17:57.874Z,2.50
2023-03-28T06:20:24.683Z,2.60
2023-03-28T06:22:51.312Z,2.70
2023-03-28T06:25:17.927Z,2.70
2023-03-28T06:27:44.452Z,2.70
2023-03-28T06:30:11.711Z,2.80
2023-03-28T06:32:38.410Z,2.90
2023-03-28T06:35:05.517Z,3.00
2023-03-28T06:37:32.010Z,3.20
2023-03-28T06:39:58.546Z,3.20
2023-03-28T06:42:25.150Z,3.20
2023-03-28T06:44:52.609Z,3.30
2023-03-28T06:47:19.197Z,3.40
2023-03-28T06:49:45.769Z,3.40
2023-03-28T06:52:12.388Z,3.40
2023-03-28T06:54:38.900Z,3.50
2023-03-28T06:57:05.625Z,3.60
2023-03-28T06:59:32.244Z,3.70
2023-03-28T07:01:58.944Z,3.60
2023-03-28T07:04:25.614Z,3.70
2023-03-28T07:06:52.201Z,3.70
2023-03-28T07:09:18.823Z,3.90
2023-03-28T07:11:45.533Z,3.90
2023-03-28T07:14:12.156Z,4.00
2023-03-28T07:16:38.820Z,4.10
2023-03-28T07:19:05.503Z,4.00
2023-03-28T07:21:32.122Z,4.00
2023-03-28T07:23:58.686Z,4.10
2023-03-28T07:26:26.894Z,4.20
2023-03-28T07:28:55.007Z,4.30
2023-03-28T07:31:21.850Z,4.40
2023-03-28T07:33:51.214Z,4.40
2023-03-28T07:36:21.401Z,4.40
2023-03-28T07:38:49.452Z,4.40
2023-03-28T07:41:16.494Z,4.60
2023-03-28T07:43:43.224Z,4.50
2023-03-28T07:46:13.809Z,4.60
2023-03-28T07:48:41.118Z,4.70
2023-03-28T07:51:09.876Z,4.70
2023-03-28T07:53:37.831Z,4.90
2023-03-28T07:56:05.791Z,4.80
2023-03-28T07:58:32.365Z,5.00
2023-03-28T08:01:06.067Z,5.20
2023-03-28T08:03:33.058Z,5.50
2023-03-28T08:06:09.254Z,5.70
2023-03-28T08:08:40.349Z,5.70
2023-03-28T08:11:07.711Z,5.60
2023-03-28T08:13:34.427Z,5.70
2023-03-28T08:16:01.204Z,5.60
2023-03-28T08:18:27.871Z,5.70
2023-03-28T08:21:01.597Z,5.70
2023-03-28T08:23:28.914Z,5.70
2023-03-28T08:26:07.257Z,5.90
2023-03-28T08:28:35.624Z,5.90
2023-03-28T08:31:09.435Z,6.00
2023-03-28T08:33:36.155Z,6.00
2023-03-28T08:36:02.845Z,6.20
2023-03-28T08:38:29.567Z,6.30
2023-03-28T08:41:07.685Z,6.20
2023-03-28T08:43:54.335Z,6.40
2023-03-28T08:46:24.083Z,6.50
2023-03-28T08:48:52.776Z,6.40
2023-03-28T08:51:32.228Z,6.40
2023-03-28T08:54:23.005Z,6.60
2023-03-28T08:56:55.724Z,6.60
2023-03-28T08:59:40.962Z,6.90
2023-03-28T09:02:22.264Z,6.90
2023-03-28T09:04:50.443Z,7.10
2023-03-28T09:07:39.938Z,7.00
2023-03-28T09:10:24.298Z,7.10
2023-03-28T09:13:02.516Z,7.10
2023-03-28T09:16:06.778Z,7.30
2023-03-28T09:19:10.688Z,7.20
2023-03-28T09:22:15.843Z,7.60
2023-03-28T09:25:11.399Z,7.90
2023-03-28T09:28:02.532Z,8.00
2023-03-28T09:30:33.559Z,7.90
2023-03-28T09:33:05.664Z,7.80
2023-03-28T09:35:34.184Z,7.70
2023-03-28T09:38:09.839Z,7.60
2023-03-28T09:40:42.453Z,7.60
2023-03-28T09:43:14.733Z,8.00
2023-03-28T09:45:54.148Z,8.30
2023-03-28T09:48:25.220Z,8.10
2023-03-28T09:50:55.048Z,7.90
2023-03-28T09:53:29.131Z,7.90
2023-03-28T09:56:05.260Z,8.10
2023-03-28T09:58:51.267Z,8.40
2023-03-28T10:01:45.304Z,8.50
2023-03-28T10:04:13.864Z,8.10
2023-03-28T10:06:42.091Z,7.90
2023-03-28T10:09:18.849Z,7.70
2023-03-28T10:11:50.374Z,7.60
2023-03-28T10:14:36.744Z,7.60
2023-03-28T10:17:12.121Z,7.80
2023-03-28T10:19:42.947Z,7.80
2023-03-28T10:22:16.840Z,8.10
2023-03-28T10:24:47.200Z,8.70
2023-03-28T10:27:35.200Z,8.20
2023-03-28T10:30:29.754Z,8.30
2023-03-28T10:33:16.123Z,8.10
2023-03-28T10:35:48.508Z,8.20
2023-03-28T10:38:18.013Z,8.30
2023-03-28T10:40:53.386Z,8.50
2023-03-28T10:43:20.045Z,8.60
2023-03-28T10:45:51.553Z,8.90
2023-03-28T10:48:25.756Z,9.00
2023-03-28T10:50:58.391Z,8.90
2023-03-28T10:53:41.373Z,9.20
2023-03-28T10:56:28.009Z,8.50
2023-03-28T10:59:28.965Z,8.40
2023-03-28T11:02:37.486Z,8.40
2023-03-28T11:05:21.474Z,8.70
2023-03-28T11:08:27.464Z,9.00
2023-03-28T11:11:07.581Z,9.00
2023-03-28T11:13:42.315Z,8.90
2023-03-28T11:16:26.803Z,9.00
2023-03-28T11:18:56.307Z,8.90
2023-03-28T11:21:47.365Z,8.80
2023-03-28T11:24:22.815Z,8.40
2023-03-28T11:27:15.580Z,8.30
2023-03-28T11:30:12.015Z,8.50
2023-03-28T11:33:14.027Z,8.50
2023-03-28T11:35:54.785Z,8.90
2023-03-28T11:38:31.351Z,9.10
2023-03-28T11:41:22.601Z,8.80
2023-03-28T11:44:10.330Z,8.90
2023-03-28T11:46:43.270Z,9.00
2023-03-28T11:49:17.195Z,8.90
2023-03-28T11:52:07.061Z,9.40
2023-03-28T11:55:01.981Z,9.80
2023-03-28T11:57:51.901Z,10.00
2023-03-28T12:00:56.789Z,10.10
2023-03-28T12:03:42.934Z,9.50
2023-03-28T12:06:22.349Z,9.50
2023-03-28T12:09:02.168Z,9.90
2023-03-28T12:12:16.172Z,10.20
2023-03-28T12:15:05.673Z,9.90
2023-03-28T12:17:42.414Z,10.20
2023-03-28T12:20:15.993Z,10.40
2023-03-28T12:22:42.494Z,10.60
2023-03-28T12:25:13.725Z,10.80
2023-03-28T12:27:59.587Z,10.80
2023-03-28T12:31:14.650Z,11.10
2023-03-28T12:33:47.942Z,10.90
2023-03-28T12:36:18.899Z,10.80
2023-03-28T12:38:55.656Z,10.50
2023-03-28T12:41:31.124Z,10.70
2023-03-28T12:44:05.957Z,10.80
2023-03-28T12:46:46.149Z,10.90
2023-03-28T12:49:41.782Z,11.20
2023-03-28T12:52:15.872Z,11.70
2023-03-28T12:55:01.402Z,12.00
2023-03-28T12:57:40.434Z,11.60
2023-03-28T13:00:37.224Z,11.30
2023-03-28T13:03:41.765Z,11.40
2023-03-28T13:06:26.818Z,11.50
2023-03-28T13:09:39.096Z,11.40
2023-03-28T13:12:31.230Z,11.60
2023-03-28T13:15:03.608Z,12.00
2023-03-28T13:17:32.752Z,12.00
2023-03-28T13:20:16.534Z,11.60
2023-03-28T13:22:58.392Z,11.70
2023-03-28T13:25:35.499Z,11.00
2023-03-28T13:28:29.695Z,11.80
2023-03-28T13:31:12.019Z,11.80
2023-03-28T13:33:53.899Z,12.10
2023-03-28T13:36:23.254Z,12.30
2023-03-28T13:39:07.126Z,12.00
2023-03-28T13:41:52.580Z,11.20
2023-03-28T13:44:24.608Z,11.60
2023-03-28T13:46:53.919Z,12.10
2023-03-28T13:49:22.190Z,12.40
2023-03-28T13:52:04.673Z,12.20
2023-03-28T13:54:32.084Z,12.40
2023-03-28T13:57:08.261Z,12.20
2023-03-28T13:59:38.116Z,12.30
2023-03-28T14:02:18.414Z,11.80
2023-03-28T14:04:55.642Z,11.80
2023-03-28T14:07:29.783Z,12.40
2023-03-28T14:09:57.467Z,13.10
2023-03-28T14:12:28.468Z,13.50
2023-03-28T14:14:58.050Z,14.00
2023-03-28T14:17:36.630Z,13.90
2023-03-28T14:20:06.364Z,13.80
2023-03-28T14:22:43.254Z,13.00
2023-03-28T14:25:16.395Z,13.40
2023-03-28T14:27:51.314Z,13.50
2023-03-28T14:30:18.255Z,13.80
2023-03-28T14:33:08.756Z,12.70
2023-03-28T14:35:37.674Z,12.70
2023-03-28T14:38:15.804Z,13.00
2023-03-28T14:40:45.043Z,13.20
2023-03-28T14:43:16.848Z,12.70
2023-03-28T14:45:50.287Z,12.70
2023-03-28T14:48:19.816Z,11.90
2023-03-28T14:50:48.847Z,12.40
2023-03-28T14:53:27.777Z,12.50
2023-03-28T14:56:00.818Z,12.70
2023-03-28T14:58:28.649Z,12.90
2023-03-28T15:00:59.253Z,13.10
2023-03-28T15:03:39.508Z,12.90
2023-03-28T15:06:07.952Z,13.00
2023-03-28T15:08:39.008Z,12.90
2023-03-28T15:11:23.563Z,12.00
2023-03-28T15:13:59.023Z,11.50
2023-03-28T15:16:27.040Z,12.00
2023-03-28T15:19:07.318Z,12.40
2023-03-28T15:21:39.147Z,13.30
2023-03-28T15:24:08.385Z,13.70
2023-03-28T15:26:46.540Z,13.50
2023-03-28T15:29:18.492Z,13.10
2023-03-28T15:31:46.179Z,12.80
2023-03-28T15:34:21.076Z,13.40
2023-03-28T15:36:56.003Z,13.40
2023-03-28T15:39:29.585Z,12.90
2023-03-28T15:42:09.034Z,12.50
2023-03-28T15:44:38.416Z,12.30
2023-03-28T15:47:12.912Z,12.80
2023-03-28T15:49:39.765Z,13.00
2023-03-28T15:52:15.095Z,12.90
2023-03-28T15:54:44.753Z,12.40
2023-03-28T15:57:14.429Z,12.30
2023-03-28T15:59:49.201Z,12.50
2023-03-28T16:02:20.767Z,12.30
2023-03-28T16:05:09.242Z,12.10
2023-03-28T16:07:48.148Z,11.90
2023-03-28T16:10:20.307Z,11.60
2023-03-28T16:12:47.443Z,11.40
2023-03-28T16:15:14.478Z,11.40
2023-03-28T16:17:43.109Z,11.20
2023-03-28T16:20:15.792Z,11.20
2023-03-28T16:22:43.167Z,11.20
2023-03-28T16:25:10.803Z,11.00
2023-03-28T16:27:37.988Z,11.00
2023-03-28T16:30:07.643Z,11.10
2023-03-28T16:32:34.378Z,11.20
2023-03-28T16:35:01.036Z,11.10
2023-03-28T16:37:27.978Z,11.00
2023-03-28T16:39:54.645Z,10.90
2023-03-28T16:42:21.400Z,10.80
2023-03-28T16:44:48.021Z,10.70
2023-03-28T16:47:15.526Z,10.70
2023-03-28T16:49:42.072Z,10.60
2023-03-28T16:52:08.647Z,10.60
2023-03-28T16:54:35.629Z,10.50
2023-03-28T16:57:02.457Z,10.40
2023-03-28T16:59:29.071Z,10.30
2023-03-28T17:01:55.913Z,10.10
2023-03-28T17:04:22.526Z,9.90
2023-03-28T17:06:49.145Z,9.80
2023-03-28T17:09:16.054Z,9.80
2023-03-28T17:11:42.887Z,9.70
2023-03-28T17:14:09.556Z,9.50
2023-03-28T17:16:40.021Z,9.50
2023-03-28T17:19:07.181Z,9.40
2023-03-28T17:21:34.883Z,9.30
2023-03-28T17:24:01.927Z,9.40
2023-03-28T17:26:28.657Z,9.30
2023-03-28T17:28:58.249Z,9.20
2023-03-28T17:31:25.557Z,9.20
2023-03-28T17:33:52.348Z,9.10
2023-03-28T17:36:26.083Z,9.00
2023-03-28T17:38:55.701Z,9.00
2023-03-28T17:41:23.028Z,8.90
2023-03-28T17:43:51.052Z,9.00
2023-03-28T17:46:17.905Z,8.90
2023-03-28T17:48:44.866Z,8.70
2023-03-28T17:51:11.879Z,8.70
2023-03-28T17:53:39.857Z,8.70
2023-03-28T17:56:07.096Z,8.70
2023-03-28T17:58:34.381Z,8.60
2023-03-28T18:01:01.267Z,8.60
2023-03-28T18:03:28.531Z,8.60
2023-03-28T18:06:00.559Z,8.50
2023-03-28T18:08:28.865Z,8.50
2023-03-28T18:11:00.829Z,8.50
2023-03-28T18:13:27.722Z,8.50
2023-03-28T18:15:54.340Z,8.50
2023-03-28T18:18:21.147Z,8.50
2023-03-28T18:20:49.214Z,8.40
2023-03-28T18:23:15.762Z,8.40
2023-03-28T18:25:42.340Z,8.40
2023-03-28T18:28:09.654Z,8.40
2023-03-28T18:30:36.932Z,8.40
2023-03-28T18:33:03.643Z,8.40
2023-03-28T18:35:30.537Z,8.40
2023-03-28T18:37:57.582Z,8.40
2023-03-28T18:40:24.509Z,8.40
2023-03-28T18:42:51.382Z,8.40
2023-03-28T18:45:18.170Z,8.40
2023-03-28T18:47:44.763Z,8.40
2023-03-28T18:50:11.594Z,8.30
2023-03-28T18:52:38.702Z,8.30
2023-03-28T18:55:05.797Z,8.30
2023-03-28T18:57:32.657Z,8.30
2023-03-28T19:00:00.420Z,8.30
2023-03-28T19:02:28.785Z,8.30
2023-03-28T19:04:56.100Z,8.20
2023-03-28T19:07:22.706Z,8.20
2023-03-28T19:09:49.275Z,8.20
2023-03-28T19:12:16.301Z,8.20
2023-03-28T19:14:42.868Z,8.10
2023-03-28T19:17:09.469Z,8.10
2023-03-28T19:19:37.421Z,8.00
2023-03-28T19:22:06.160Z,8.10
2023-03-28T19:24:33.155Z,8.00
2023-03-28T19:27:01.003Z,8.00
2023-03-28T19:29:29.964Z,8.00
2023-03-28T19:31:56.890Z,8.00
2023-03-28T19:34:23.415Z,8.00
2023-03-28T19:36:50.492Z,8.00
2023-03-28T19:39:17.125Z,8.00
2023-03-28T19:41:43.742Z,8.00
2023-03-28T19:44:10.259Z,8.00
2023-03-28T19:46:38.789Z,8.00
2023-03-28T19:49:06.615Z,7.90
2023-03-28T19:51:34.054Z,7.90
2023-03-28T19:54:00.666Z,7.90
2023-03-28T19:56:27.350Z,7.90
2023-03-28T19:58:54.164Z,7.90
2023-03-28T20:01:20.804Z,7.90
2023-03-28T20:03:52.031Z,7.90
2023-03-28T20:06:19.911Z,7.80
2023-03-28T20:08:46.610Z,7.90
2023-03-28T20:11:14.234Z,7.90
2023-03-28T20:13:41.066Z,7.90
2023-03-28T20:16:09.291Z,7.90
2023-03-28T20:18:36.953Z,7.80
2023-03-28T20:21:06.623Z,7.80
2023-03-28T20:23:33.659Z,7.80
2023-03-28T20:26:01.614Z,7.80
2023-03-28T20:28:32.435Z,7.80
2023-03-28T20:30:59.281Z,7.90
2023-03-28T20:33:26.150Z,7.90
2023-03-28T20:35:58.045Z,7.80
2023-03-28T20:38:26.021Z,7.80
2023-03-28T20:40:52.701Z,7.80
2023-03-28T20:43:26.499Z,7.80
2023-03-28T20:45:58.022Z,7.80
2023-03-28T20:48:34.049Z,7.80
2023-03-28T20:51:04.176Z,7.80
2023-03-28T20:53:32.900Z,7.70
2023-03-28T20:56:04.819Z,7.70
2023-03-28T20:58:32.963Z,7.80
2023-03-28T21:01:01.518Z,7.80
2023-03-28T21:03:46.500Z,7.80
2023-03-28T21:06:21.247Z,7.80
2023-03-28T21:08:49.930Z,7.80
2023-03-28T21:11:19.112Z,7.80
2023-03-28T21:13:45.876Z,7.80
2023-03-28T21:16:17.126Z,7.90
2023-03-28T21:18:45.344Z,8.10
2023-03-28T21:21:13.147Z,8.20
2023-03-28T21:23:40.906Z,8.20
2023-03-28T21:26:10.999Z,8.20
2023-03-28T21:28:38.354Z,8.20
2023-03-28T21:31:18.018Z,8.20
2023-03-28T21:33:45.534Z,8.30
2023-03-28T21:36:15.799Z,8.30
2023-03-28T21:38:43.473Z,8.30
2023-03-28T21:41:11.309Z,8.20
2023-03-28T21:43:38.601Z,8.20
2023-03-28T21:46:07.481Z,8.20
2023-03-28T21:48:39.058Z,8.20
2023-03-28T21:51:06.325Z,8.20
2023-03-28T21:53:36.634Z,8.20
2023-03-28T21:56:04.516Z,8.20
2023-03-28T21:58:33.225Z,8.10
2023-03-28T22:01:02.695Z,8.10
2023-03-28T22:03:30.371Z,8.10
2023-03-28T22:05:57.223Z,8.20
2023-03-28T22:08:23.836Z,8.20
2023-03-28T22:10:53.628Z,8.20
2023-03-28T22:13:23.566Z,8.20
2023-03-28T22:15:53.169Z,8.20
2023-03-28T22:18:20.436Z,8.10
2023-03-28T22:20:52.813Z,8.10
2023-03-28T22:23:19.440Z,8.10
2023-03-28T22:25:46.519Z,8.10
2023-03-28T22:28:13.833Z,8.00
2023-03-28T22:30:41.793Z,8.00
2023-03-28T22:33:10.885Z,8.00
2023-03-28T22:35:37.999Z,8.00
2023-03-28T22:38:05.008Z,7.90
2023-03-28T22:40:32.155Z,7.90
2023-03-28T22:42:58.831Z,7.70
2023-03-28T22:45:29.051Z,7.80
2023-03-28T22:48:00.022Z,7.80
2023-03-28T22:50:27.909Z,7.80
2023-03-28T22:52:55.010Z,7.70
2023-03-28T22:55:24.007Z,7.70
2023-03-28T22:57:52.302Z,7.70
2023-03-28T23:00:22.806Z,7.70
2023-03-28T23:02:51.590Z,7.70
2023-03-28T23:05:19.194Z,7.70
2023-03-28T23:07:45.881Z,7.70
2023-03-28T23:10:15.444Z,7.70
2023-03-28T23:12:42.980Z,7.70
2023-03-28T23:15:10.769Z,7.70
2023-03-28T23:17:37.518Z,7.70
2023-03-28T23:20:12.268Z,7.70
2023-03-28T23:22:40.363Z,7.70
2023-03-28T23:25:07.248Z,7.70
2023-03-28T23:27:33.908Z,7.70
2023-03-28T23:30:00.512Z,7.70
2023-03-28T23:32:27.166Z,7.70
2023-03-28T23:34:53.709Z,7.70
2023-03-28T23:37:20.353Z,7.70
2023-03-28T23:39:47.176Z,7.70
2023-03-28T23:42:13.684Z,7.60
2023-03-28T23:44:40.237Z,7.60
2023-03-28T23:47:07.023Z,7.60
2023-03-28T23:49:33.584Z,7.60
2023-03-28T23:52:00.395Z,7.60
2023-03-28T23:54:29.768Z,7.60
2023-03-28T23:56:57.416Z,7.70
2023-03-28T23:59:25.135Z,7.70
